createdAt,value
2017-11-04T00:01:33.876Z,41.91
2017-11-04T00:04:01.026Z,41.94
2017-11-04T00:06:28.236Z,41.97
2017-11-04T00:08:55.433Z,41.93
2017-11-04T00:11:22.635Z,41.95
2017-11-04T00:13:49.808Z,41.95
2017-11-04T00:16:16.986Z,41.99
2017-11-04T00:18:44.752Z,42.02
2017-11-04T00:21:11.918Z,42.03
2017-11-04T00:23:39.068Z,42.03
2017-11-04T00:26:06.288Z,42.08
2017-11-04T00:28:33.472Z,42.07
2017-11-04T00:31:00.664Z,42.08
2017-11-04T00:33:27.865Z,42.09
2017-11-04T00:35:55.400Z,42.15
2017-11-04T00:38:22.541Z,42.17
2017-11-04T00:40:49.781Z,42.18
2017-11-04T00:43:18.468Z,42.21
2017-11-04T00:45:45.686Z,42.28
2017-11-04T00:48:12.871Z,42.28
2017-11-04T00:50:54.229Z,42.29
2017-11-04T00:53:29.175Z,42.32
2017-11-04T00:55:56.419Z,42.34
2017-11-04T00:58:23.672Z,42.37
2017-11-04T01:00:50.968Z,42.39
2017-11-04T01:03:18.139Z,42.34
2017-11-04T01:05:46.018Z,42.45
2017-11-04T01:08:14.482Z,42.47
2017-11-04T01:10:41.667Z,42.50
2017-11-04T01:13:08.861Z,42.47
2017-11-04T01:15:36.103Z,42.45
2017-11-04T01:18:15.909Z,42.48
2017-11-04T01:20:43.106Z,42.49
2017-11-04T01:23:10.310Z,42.56
2017-11-04T01:25:50.616Z,42.62
2017-11-04T01:28:17.820Z,42.65
2017-11-04T01:30:45.028Z,42.63
2017-11-04T01:33:26.691Z,42.61
2017-11-04T01:35:53.863Z,42.64
2017-11-04T01:38:21.058Z,42.62
2017-11-04T01:40:48.311Z,42.60
2017-11-04T01:43:15.568Z,42.59
2017-11-04T01:45:42.973Z,42.61
2017-11-04T01:48:10.214Z,42.69
2017-11-04T01:50:37.458Z,42.73
2017-11-04T01:56:01.000Z,42.75
2017-11-04T01:58:28.147Z,42.80
2017-11-04T02:00:55.298Z,42.83
2017-11-04T02:03:22.579Z,42.81
2017-11-04T02:05:49.808Z,42.81
2017-11-04T02:08:16.983Z,42.84
2017-11-04T02:10:44.239Z,42.84
2017-11-04T02:13:11.592Z,42.86
2017-11-04T02:15:38.768Z,42.89
2017-11-04T02:18:06.080Z,42.90
2017-11-04T02:20:33.342Z,42.93
2017-11-04T02:23:00.617Z,42.94
2017-11-04T02:25:27.860Z,42.97
2017-11-04T02:27:55.103Z,42.97
2017-11-04T02:30:29.602Z,42.97
2017-11-04T02:32:56.810Z,42.98
2017-11-04T02:35:31.150Z,43.02
2017-11-04T02:37:58.381Z,42.99
2017-11-04T02:40:25.552Z,42.99
2017-11-04T02:42:52.704Z,43.03
2017-11-04T02:45:19.927Z,43.03
2017-11-04T02:47:47.135Z,43.06
2017-11-04T02:50:14.371Z,43.04
2017-11-04T02:52:41.581Z,43.02
2017-11-04T02:55:08.782Z,43.04
2017-11-04T02:57:36.001Z,43.04
2017-11-04T03:02:52.957Z,43.09
2017-11-04T03:05:20.105Z,43.08
2017-11-04T03:07:47.430Z,43.12
2017-11-04T03:10:14.814Z,43.12
2017-11-04T03:12:43.008Z,43.07
2017-11-04T03:15:10.184Z,43.14
2017-11-04T03:26:24.940Z,43.21
2017-11-04T03:28:52.172Z,43.23
2017-11-04T03:31:19.414Z,43.24
2017-11-04T03:33:46.653Z,43.23
2017-11-04T03:36:13.911Z,43.23
2017-11-04T03:38:41.144Z,43.24
2017-11-04T03:41:08.402Z,43.25
2017-11-04T03:46:08.907Z,43.27
2017-11-04T03:48:36.149Z,43.30
2017-11-04T03:51:03.442Z,43.26
2017-11-04T03:53:30.762Z,43.32
2017-11-04T03:58:50.752Z,43.30
2017-11-04T04:01:17.975Z,43.27
2017-11-04T04:03:45.231Z,43.28
2017-11-04T04:06:12.408Z,43.29
2017-11-04T04:08:39.728Z,43.33
2017-11-04T04:11:07.003Z,43.34
2017-11-04T04:13:34.296Z,43.34
2017-11-04T04:16:01.533Z,43.38
2017-11-04T04:18:41.719Z,43.37
2017-11-04T04:21:08.932Z,43.35
2017-11-04T04:23:57.620Z,43.32
2017-11-04T04:26:24.833Z,43.32
2017-11-04T04:28:52.072Z,43.35
2017-11-04T04:31:19.350Z,43.35
2017-11-04T04:33:46.625Z,43.39
2017-11-04T04:36:13.976Z,43.38
2017-11-04T05:32:30.066Z,43.45
2017-11-04T05:34:57.338Z,43.45
2017-11-04T05:37:25.144Z,43.42
2017-11-04T05:39:52.385Z,43.42
2017-11-04T05:42:19.634Z,43.46
2017-11-04T05:44:46.837Z,43.46
2017-11-04T05:47:14.149Z,43.45
2017-11-04T05:49:41.364Z,43.45
2017-11-04T05:52:08.527Z,43.44
2017-11-04T05:54:35.740Z,43.42
2017-11-04T05:57:02.946Z,43.42
2017-11-04T05:59:30.115Z,43.42
2017-11-04T06:01:57.819Z,43.43
2017-11-04T06:04:25.089Z,43.42
2017-11-04T06:06:52.258Z,43.42
2017-11-04T06:09:19.418Z,43.41
2017-11-04T06:11:46.667Z,43.43
2017-11-04T06:14:13.876Z,43.41
2017-11-04T06:16:41.087Z,43.40
2017-11-04T06:19:08.358Z,43.37
2017-11-04T06:21:35.545Z,43.38
2017-11-04T06:24:02.914Z,43.38
2017-11-04T06:26:30.185Z,43.38
2017-11-04T06:28:57.360Z,43.38
2017-11-04T06:31:24.624Z,43.40
2017-11-04T06:33:51.869Z,43.40
2017-11-04T06:36:19.029Z,43.38
2017-11-04T06:38:46.277Z,43.37
2017-11-04T06:41:13.482Z,43.34
2017-11-04T06:43:40.646Z,43.32
2017-11-04T06:46:07.914Z,43.27
2017-11-04T06:48:35.155Z,43.28
2017-11-04T06:51:02.380Z,43.28
2017-11-04T06:53:29.582Z,43.29
2017-11-04T06:55:56.732Z,43.29
2017-11-04T06:58:23.928Z,43.29
2017-11-04T07:00:51.162Z,43.27
2017-11-04T07:03:18.368Z,43.23
2017-11-04T07:05:45.610Z,43.17
2017-11-04T07:08:12.768Z,43.15
2017-11-04T07:10:39.985Z,43.17
2017-11-04T07:13:07.165Z,43.13
2017-11-04T07:15:34.380Z,43.11
2017-11-04T07:18:01.568Z,43.02
2017-11-04T07:20:28.815Z,43.04
2017-11-04T07:22:56.002Z,42.97
2017-11-04T07:25:23.186Z,42.96
2017-11-04T07:27:50.434Z,42.85
2017-11-04T07:30:17.633Z,42.75
2017-11-04T07:32:44.782Z,42.71
2017-11-04T07:35:11.994Z,42.74
2017-11-04T07:37:39.249Z,42.69
2017-11-04T07:40:07.222Z,42.70
2017-11-04T07:42:34.411Z,42.64
2017-11-04T07:45:01.595Z,42.64
2017-11-04T07:47:28.789Z,42.63
2017-11-04T07:49:56.039Z,42.60
2017-11-04T07:52:23.298Z,42.50
2017-11-04T07:54:50.480Z,42.42
2017-11-04T07:57:17.684Z,42.44
2017-11-04T07:59:44.987Z,42.48
2017-11-04T08:02:12.178Z,42.43
2017-11-04T08:04:39.488Z,42.39
2017-11-04T08:07:06.660Z,42.37
2017-11-04T08:09:33.867Z,42.31
2017-11-04T08:12:01.157Z,42.26
2017-11-04T08:14:28.391Z,42.24
2017-11-04T08:16:55.641Z,42.21
2017-11-04T08:19:22.830Z,42.18
2017-11-04T08:21:49.971Z,42.13
2017-11-04T08:24:17.259Z,42.18
2017-11-04T08:26:44.444Z,42.09
2017-11-04T08:29:11.712Z,42.16
2017-11-04T08:31:38.916Z,42.11
2017-11-04T08:34:06.128Z,42.15
2017-11-04T08:36:33.367Z,42.09
2017-11-04T08:39:00.600Z,42.05
2017-11-04T08:41:27.848Z,42.14
2017-11-04T08:43:55.014Z,42.05
2017-11-04T08:46:22.185Z,41.95
2017-11-04T08:48:49.625Z,41.87
2017-11-04T08:51:16.939Z,41.70
2017-11-04T08:53:44.142Z,41.56
2017-11-04T08:56:11.397Z,41.43
2017-11-04T08:58:38.644Z,41.27
2017-11-04T09:01:05.924Z,41.21
2017-11-04T09:03:33.150Z,41.17
2017-11-04T09:06:00.367Z,41.26
2017-11-04T09:08:27.531Z,41.16
2017-11-04T09:10:54.788Z,41.34
2017-11-04T09:13:21.995Z,40.98
2017-11-04T09:15:49.172Z,40.80
2017-11-04T09:18:16.524Z,40.71
2017-11-04T09:20:44.201Z,40.59
2017-11-04T09:23:11.392Z,40.50
2017-11-04T09:25:38.582Z,40.46
2017-11-04T09:28:05.893Z,40.38
2017-11-04T09:30:33.309Z,40.31
2017-11-04T09:33:00.495Z,40.22
2017-11-04T09:35:27.707Z,40.18
2017-11-04T09:37:54.896Z,40.10
2017-11-04T09:40:22.095Z,40.06
2017-11-04T09:42:49.314Z,40.02
2017-11-04T09:45:16.558Z,39.93
2017-11-04T09:47:43.748Z,39.92
2017-11-04T09:50:10.954Z,39.80
2017-11-04T09:52:38.127Z,39.76
2017-11-04T09:55:05.498Z,39.74
2017-11-04T09:57:32.985Z,39.67
2017-11-04T10:58:45.590Z,38.56
2017-11-04T11:39:39.403Z,37.83
2017-11-04T11:42:06.649Z,37.81
2017-11-04T11:44:33.862Z,37.78
2017-11-04T11:47:01.063Z,37.79
2017-11-04T11:49:28.492Z,37.70
2017-11-04T11:51:55.658Z,37.69
2017-11-04T11:54:22.863Z,37.68
2017-11-04T11:56:50.074Z,37.55
2017-11-04T11:59:17.528Z,37.54
2017-11-04T12:01:44.688Z,37.51
2017-11-04T12:04:11.931Z,37.43
2017-11-04T12:06:39.092Z,37.40
2017-11-04T12:09:06.328Z,37.42
2017-11-04T12:11:33.567Z,37.38
2017-11-04T12:14:00.886Z,37.33
2017-11-04T12:16:28.126Z,37.46
2017-11-04T12:18:55.300Z,37.56
2017-11-04T12:21:22.501Z,37.47
2017-11-04T12:23:49.719Z,37.47
2017-11-04T12:26:16.961Z,37.26
2017-11-04T12:28:44.175Z,37.19
2017-11-04T12:31:11.341Z,37.09
2017-11-04T12:33:38.506Z,37.12
2017-11-04T12:36:05.723Z,37.07
2017-11-04T12:41:06.210Z,37.05
2017-11-04T12:43:33.423Z,37.10
2017-11-04T12:46:00.656Z,37.11
2017-11-04T12:48:27.937Z,37.04
2017-11-04T12:50:55.101Z,37.04
2017-11-04T12:53:22.352Z,37.05
2017-11-04T12:55:49.561Z,37.02
2017-11-04T12:58:16.807Z,36.98
2017-11-04T13:00:44.039Z,36.91
2017-11-04T13:03:11.244Z,36.91
2017-11-04T13:05:38.573Z,36.82
2017-11-04T13:08:05.810Z,36.82
2017-11-04T13:10:33.111Z,36.83
2017-11-04T13:13:00.353Z,36.76
2017-11-04T13:15:27.521Z,36.74
2017-11-04T13:17:54.715Z,36.69
2017-11-04T13:20:21.943Z,36.59
2017-11-04T13:22:49.181Z,36.59
2017-11-04T13:25:16.441Z,36.50
2017-11-04T13:27:43.733Z,36.51
2017-11-04T13:30:10.905Z,36.52
2017-11-04T13:32:38.099Z,36.56
2017-11-04T13:35:05.319Z,36.62
2017-11-04T13:37:32.472Z,36.61
2017-11-04T13:40:00.031Z,36.60
2017-11-04T13:42:27.253Z,36.45
2017-11-04T13:44:54.465Z,36.44
2017-11-04T13:47:21.732Z,36.42
2017-11-04T13:49:48.915Z,36.46
2017-11-04T13:52:16.260Z,36.52
2017-11-04T13:54:43.558Z,36.50
2017-11-04T13:57:10.742Z,36.51
2017-11-04T13:59:38.027Z,36.51
2017-11-04T14:02:05.392Z,36.51
2017-11-04T14:04:32.624Z,36.54
2017-11-04T14:07:00.000Z,36.57
2017-11-04T14:09:27.239Z,36.59
2017-11-04T14:11:54.505Z,36.60
2017-11-04T14:14:21.777Z,36.63
2017-11-04T14:16:48.995Z,36.62
2017-11-04T14:19:16.383Z,36.55
2017-11-04T14:21:43.553Z,36.54
2017-11-04T14:24:10.772Z,36.52
2017-11-04T14:26:38.015Z,36.49
2017-11-04T14:29:05.223Z,36.52
2017-11-04T14:31:32.553Z,36.52
2017-11-04T14:33:59.792Z,36.50
2017-11-04T14:36:26.989Z,36.51
2017-11-04T14:38:54.278Z,36.47
2017-11-04T14:41:21.445Z,36.49
2017-11-04T14:43:48.639Z,36.45
2017-11-04T14:46:15.820Z,36.44
2017-11-04T14:48:43.072Z,36.42
2017-11-04T14:51:10.288Z,36.45
2017-11-04T14:53:37.495Z,36.43
2017-11-04T14:56:04.699Z,36.47
2017-11-04T14:58:32.011Z,36.47
2017-11-04T15:00:59.241Z,36.48
2017-11-04T15:03:26.406Z,36.48
2017-11-04T15:05:53.630Z,36.46
2017-11-04T15:08:20.874Z,36.51
2017-11-04T15:10:48.020Z,36.54
2017-11-04T15:13:15.243Z,36.56
2017-11-04T15:15:42.479Z,36.57
2017-11-04T15:18:09.760Z,36.63
2017-11-04T15:20:36.923Z,36.65
2017-11-04T15:23:04.143Z,36.66
2017-11-04T15:25:31.378Z,36.66
2017-11-04T15:27:58.627Z,36.67
2017-11-04T15:30:25.839Z,36.65
2017-11-04T15:32:53.104Z,36.67
2017-11-04T15:35:20.315Z,36.69
2017-11-04T15:37:47.494Z,36.70
2017-11-04T15:40:14.779Z,36.75
2017-11-04T15:42:42.183Z,36.75
2017-11-04T15:45:09.462Z,36.79
2017-11-04T15:47:36.680Z,36.81
2017-11-04T15:50:03.882Z,36.82
2017-11-04T15:52:31.121Z,36.83
2017-11-04T15:54:58.299Z,36.82
2017-11-04T15:57:25.560Z,36.85
2017-11-04T15:59:52.876Z,36.87
2017-11-04T16:02:21.611Z,36.90
2017-11-04T16:04:48.893Z,36.94
2017-11-04T16:07:16.152Z,36.96
2017-11-04T16:09:43.407Z,36.98
2017-11-04T16:12:10.611Z,37.00
2017-11-04T16:14:37.823Z,37.00
2017-11-04T16:17:05.087Z,36.99
2017-11-04T16:19:32.285Z,37.02
2017-11-04T16:21:59.538Z,37.06
2017-11-04T16:24:26.737Z,37.06
2017-11-04T16:26:53.967Z,37.11
2017-11-04T16:29:21.193Z,37.14
2017-11-04T16:31:48.467Z,37.18
2017-11-04T16:34:15.768Z,37.18
2017-11-04T16:36:43.007Z,37.20
2017-11-04T16:39:10.477Z,37.20
2017-11-04T16:41:37.928Z,37.24
2017-11-04T16:44:05.176Z,37.26
2017-11-04T16:46:32.350Z,37.26
2017-11-04T16:48:59.586Z,37.30
2017-11-04T16:51:26.826Z,37.33
2017-11-04T16:53:54.040Z,37.33
2017-11-04T16:56:21.309Z,37.37
2017-11-04T16:58:48.525Z,37.38
2017-11-04T17:01:15.805Z,37.40
2017-11-04T17:03:42.988Z,37.39
2017-11-04T17:06:10.168Z,37.41
2017-11-04T17:08:37.419Z,37.42
2017-11-04T17:11:04.658Z,37.46
2017-11-04T17:13:31.882Z,37.47
2017-11-04T17:15:59.182Z,37.54
2017-11-04T17:18:26.359Z,37.56
2017-11-04T17:20:53.605Z,37.54
2017-11-04T17:23:20.862Z,37.56
2017-11-04T17:25:48.123Z,37.54
2017-11-04T17:28:15.339Z,37.55
2017-11-04T17:30:42.565Z,37.54
2017-11-04T17:33:09.810Z,37.57
2017-11-04T17:35:37.022Z,37.59
2017-11-04T17:38:04.240Z,37.59
2017-11-04T17:40:31.486Z,37.62
2017-11-04T17:42:58.666Z,37.62
2017-11-04T17:45:25.882Z,37.63
2017-11-04T17:47:53.223Z,37.62
2017-11-04T17:50:20.397Z,37.62
2017-11-04T17:52:47.595Z,37.64
2017-11-04T17:55:14.820Z,37.65
2017-11-04T17:57:42.004Z,37.67
2017-11-04T18:00:09.240Z,37.73
2017-11-04T18:02:36.427Z,37.70
2017-11-04T18:05:03.709Z,37.71
2017-11-04T18:07:30.891Z,37.75
2017-11-04T18:09:58.082Z,37.72
2017-11-04T18:12:25.298Z,37.68
2017-11-04T18:14:53.718Z,37.70
2017-11-04T18:17:20.999Z,37.71
2017-11-04T18:19:48.245Z,37.70
2017-11-04T18:22:15.479Z,37.72
2017-11-04T18:24:42.659Z,37.75
2017-11-04T18:27:09.920Z,37.76
2017-11-04T18:29:37.101Z,37.75
2017-11-04T18:32:04.416Z,37.74
2017-11-04T18:34:31.641Z,37.75
2017-11-04T18:36:58.854Z,37.73
2017-11-04T18:39:26.064Z,37.72
2017-11-04T18:41:53.256Z,37.77
2017-11-04T18:44:20.468Z,37.78
2017-11-04T18:46:47.642Z,37.79
2017-11-04T18:49:14.836Z,37.83
2017-11-04T18:51:42.079Z,37.82
2017-11-04T18:54:09.291Z,37.84
2017-11-04T18:56:36.524Z,37.84
2017-11-04T18:59:03.772Z,37.86
2017-11-04T19:01:30.967Z,37.84
2017-11-04T19:03:58.165Z,37.84
2017-11-04T19:06:26.672Z,37.88
2017-11-04T19:08:53.952Z,37.90
2017-11-04T19:11:21.164Z,37.92
2017-11-04T19:13:48.397Z,37.93
2017-11-04T19:16:15.661Z,37.95
2017-11-04T19:18:42.879Z,37.96
2017-11-04T19:21:10.056Z,37.93
2017-11-04T19:23:37.281Z,37.94
2017-11-04T19:26:04.472Z,37.95
2017-11-04T19:28:31.654Z,37.94
2017-11-04T19:30:58.874Z,37.96
2017-11-04T19:33:26.069Z,38.00
2017-11-04T19:35:53.270Z,38.01
2017-11-04T19:38:20.491Z,38.00
2017-11-04T19:40:47.747Z,38.04
2017-11-04T19:43:14.979Z,38.09
2017-11-04T19:45:42.181Z,38.04
2017-11-04T19:48:09.397Z,38.06
2017-11-04T19:50:36.568Z,38.09
2017-11-04T19:53:03.831Z,38.08
2017-11-04T19:55:31.044Z,38.13
2017-11-04T19:57:58.222Z,38.14
2017-11-04T20:00:25.478Z,38.17
2017-11-04T20:02:52.706Z,38.17
2017-11-04T20:05:19.888Z,38.16
2017-11-04T20:07:47.107Z,38.17
2017-11-04T20:10:14.293Z,38.15
2017-11-04T20:12:41.628Z,38.20
2017-11-04T20:15:08.825Z,38.23
2017-11-04T20:17:35.996Z,38.24
2017-11-04T20:20:03.194Z,38.27
2017-11-04T20:22:30.494Z,38.33
2017-11-04T20:24:57.755Z,38.33
2017-11-04T20:27:24.941Z,38.35
2017-11-04T20:29:52.168Z,38.35
2017-11-04T20:32:20.902Z,38.32
2017-11-04T20:34:48.069Z,38.33
2017-11-04T20:37:15.376Z,38.36
2017-11-04T20:39:42.591Z,38.39
2017-11-04T20:42:09.863Z,38.41
2017-11-04T20:44:37.662Z,38.42
2017-11-04T20:47:04.893Z,38.45
2017-11-04T20:49:32.066Z,38.45
2017-11-04T20:51:59.302Z,38.45
2017-11-04T20:54:26.490Z,38.44
2017-11-04T20:56:53.743Z,38.45
2017-11-04T20:59:21.196Z,38.47
2017-11-04T21:01:48.503Z,38.48
2017-11-04T21:04:15.707Z,38.52
2017-11-04T21:06:42.936Z,38.52
2017-11-04T21:09:10.131Z,38.53
2017-11-04T21:11:37.366Z,38.59
2017-11-04T21:14:04.540Z,38.62
2017-11-04T21:16:31.739Z,38.69
2017-11-04T21:18:58.942Z,38.68
2017-11-04T21:21:26.148Z,38.75
2017-11-04T21:23:53.378Z,38.81
2017-11-04T21:26:20.588Z,38.92
2017-11-04T21:33:52.560Z,39.08
2017-11-04T21:36:19.756Z,39.12
2017-11-04T21:38:46.927Z,39.16
2017-11-04T21:41:14.124Z,39.14
2017-11-04T21:43:41.300Z,39.17
2017-11-04T21:46:08.507Z,39.21
2017-11-04T21:48:35.668Z,39.27
2017-11-04T21:51:02.885Z,39.32
2017-11-04T21:53:30.124Z,39.37
2017-11-04T21:55:57.312Z,39.38
2017-11-04T21:58:24.537Z,39.42
2017-11-04T22:00:51.698Z,39.46
2017-11-04T22:03:18.874Z,39.45
2017-11-04T22:05:46.088Z,39.49
2017-11-04T22:08:13.295Z,39.50
2017-11-04T22:10:40.444Z,39.54
2017-11-04T22:13:07.671Z,39.58
2017-11-04T22:15:34.884Z,39.62
2017-11-04T22:18:02.072Z,39.63
2017-11-04T22:20:35.144Z,39.68
2017-11-04T22:23:02.294Z,39.69
2017-11-04T22:25:29.486Z,39.71
2017-11-04T22:27:56.746Z,39.70
2017-11-04T22:30:23.928Z,39.70
2017-11-04T22:32:51.140Z,39.74
2017-11-04T22:35:18.369Z,39.73
2017-11-04T22:37:45.609Z,39.75
2017-11-04T22:40:12.778Z,39.76
2017-11-04T22:42:39.951Z,39.78
2017-11-04T22:45:07.168Z,39.78
2017-11-04T22:47:34.348Z,39.80
2017-11-04T22:50:01.505Z,39.77
2017-11-04T22:52:28.783Z,39.78
2017-11-04T22:54:57.514Z,39.78
2017-11-04T22:57:24.767Z,39.80
2017-11-04T22:59:51.994Z,39.82
2017-11-04T23:02:19.187Z,39.83
2017-11-04T23:04:46.379Z,39.84
2017-11-04T23:07:13.588Z,39.85
2017-11-04T23:09:40.787Z,39.87
2017-11-04T23:12:08.036Z,39.85
2017-11-04T23:14:35.316Z,39.84
2017-11-04T23:17:02.503Z,39.82
2017-11-04T23:19:29.716Z,39.81
2017-11-04T23:21:57.548Z,39.82
2017-11-04T23:24:24.707Z,39.83
2017-11-04T23:26:51.949Z,39.84
2017-11-04T23:29:19.168Z,39.86
2017-11-04T23:31:46.369Z,39.83
2017-11-04T23:34:13.554Z,39.84
2017-11-04T23:36:40.839Z,39.83
2017-11-04T23:39:08.027Z,39.83
2017-11-04T23:41:35.183Z,39.83
2017-11-04T23:44:02.381Z,39.81
2017-11-04T23:46:29.560Z,39.85
2017-11-04T23:48:56.773Z,39.85
2017-11-04T23:51:23.970Z,39.85
2017-11-04T23:53:51.221Z,39.87
2017-11-04T23:56:18.423Z,39.87
2017-11-04T23:58:45.631Z,39.87
